createdAt,value
2019-06-07T00:01:48.248Z,21.73
2019-06-07T00:04:20.832Z,21.75
2019-06-07T00:06:48.806Z,21.74
2019-06-07T00:09:22.323Z,21.74
2019-06-07T00:11:49.080Z,21.73
2019-06-07T00:14:20.865Z,21.70
2019-06-07T00:16:49.461Z,21.66
2019-06-07T00:19:19.132Z,21.61
2019-06-07T00:24:21.827Z,21.58
2019-06-07T00:26:58.441Z,21.53
2019-06-07T00:29:22.207Z,21.51
2019-06-07T00:31:51.563Z,21.51
2019-06-07T00:34:22.979Z,21.48
2019-06-07T00:36:52.242Z,21.43
2019-06-07T00:39:25.267Z,21.42
2019-06-07T00:41:52.486Z,21.39
2019-06-07T00:44:23.468Z,21.35
2019-06-07T00:46:53.076Z,21.36
2019-06-07T00:49:39.911Z,21.35
2019-06-07T00:51:53.837Z,21.34
2019-06-07T00:54:24.913Z,21.32
2019-06-07T00:56:54.626Z,21.33
2019-06-07T00:59:29.128Z,21.33
2019-06-07T01:01:55.487Z,21.32
2019-06-07T01:04:26.620Z,21.30
2019-06-07T01:06:55.988Z,21.27
2019-06-07T01:09:25.772Z,21.25
2019-06-07T01:11:55.210Z,21.23
2019-06-07T01:14:28.147Z,21.25
2019-06-07T01:17:01.455Z,21.22
2019-06-07T01:19:27.918Z,21.21
2019-06-07T01:21:57.766Z,21.22
2019-06-07T01:24:28.008Z,21.20
2019-06-07T01:26:57.751Z,21.16
2019-06-07T01:29:30.368Z,21.12
2019-06-07T01:31:58.101Z,21.12
2019-06-07T01:34:28.881Z,21.10
2019-06-07T01:36:58.592Z,21.07
2019-06-07T01:39:31.381Z,21.03
2019-06-07T01:41:58.950Z,21.00
2019-06-07T01:44:30.698Z,20.92
2019-06-07T01:46:59.361Z,20.84
2019-06-07T01:49:29.800Z,20.80
2019-06-07T01:51:59.465Z,20.76
2019-06-07T01:56:59.791Z,20.64
2019-06-07T01:59:31.667Z,20.61
2019-06-07T02:02:00.227Z,20.56
2019-06-07T02:04:32.886Z,20.55
2019-06-07T02:07:00.609Z,20.55
2019-06-07T02:09:31.910Z,20.52
2019-06-07T02:12:00.969Z,20.52
2019-06-07T02:14:33.225Z,20.49
2019-06-07T02:17:01.499Z,20.45
2019-06-07T02:19:31.630Z,20.43
2019-06-07T02:22:01.749Z,20.41
2019-06-07T02:24:35.063Z,20.36
2019-06-07T02:27:02.197Z,20.35
2019-06-07T02:29:33.566Z,20.31
2019-06-07T02:32:02.561Z,20.30
2019-06-07T02:34:38.827Z,20.29
2019-06-07T02:37:03.034Z,20.28
2019-06-07T02:39:37.563Z,20.29
2019-06-07T02:42:05.543Z,20.29
2019-06-07T02:44:38.993Z,20.28
2019-06-07T02:47:06.133Z,20.28
2019-06-07T02:49:40.979Z,20.26
2019-06-07T02:52:06.649Z,20.25
2019-06-07T02:54:39.622Z,20.26
2019-06-07T02:57:07.033Z,20.26
2019-06-07T03:00:03.190Z,20.25
2019-06-07T03:02:07.509Z,20.23
2019-06-07T03:04:42.185Z,20.23
2019-06-07T03:07:09.581Z,20.24
2019-06-07T03:09:40.228Z,20.30
2019-06-07T03:12:11.627Z,20.37
2019-06-07T03:14:42.280Z,20.44
2019-06-07T03:17:26.712Z,20.49
2019-06-07T03:19:57.817Z,20.55
2019-06-07T03:22:29.141Z,20.59
2019-06-07T03:25:01.414Z,20.61
2019-06-07T03:27:36.005Z,20.60
2019-06-07T03:30:35.404Z,20.60
2019-06-07T03:32:36.870Z,20.62
2019-06-07T03:35:04.948Z,20.64
2019-06-07T03:37:37.644Z,20.66
2019-06-07T03:40:08.173Z,20.69
2019-06-07T03:42:39.634Z,20.72
2019-06-07T03:45:08.706Z,20.74
2019-06-07T03:47:41.838Z,20.79
2019-06-07T03:50:09.553Z,20.83
2019-06-07T03:52:41.278Z,20.88
2019-06-07T03:55:09.877Z,20.87
2019-06-07T03:58:29.086Z,20.87
2019-06-07T04:00:10.715Z,20.90
2019-06-07T04:02:45.590Z,20.94
2019-06-07T04:05:14.955Z,20.94
2019-06-07T04:07:44.693Z,20.97
2019-06-07T04:10:14.681Z,20.98
2019-06-07T04:12:44.484Z,21.00
2019-06-07T04:15:14.263Z,21.01
2019-06-07T04:18:00.764Z,21.03
2019-06-07T04:20:14.786Z,21.09
2019-06-07T04:22:44.471Z,21.12
2019-06-07T04:25:13.894Z,21.19
2019-06-07T04:27:43.152Z,21.28
2019-06-07T04:30:12.894Z,21.36
2019-06-07T04:32:44.920Z,21.42
2019-06-07T04:35:13.287Z,21.50
2019-06-07T04:37:43.642Z,21.59
2019-06-07T04:40:13.204Z,21.66
2019-06-07T04:42:45.372Z,21.68
2019-06-07T04:45:33.182Z,21.71
2019-06-07T04:47:46.486Z,21.64
2019-06-07T04:50:15.994Z,21.76
2019-06-07T04:52:46.426Z,21.79
2019-06-07T04:55:15.838Z,21.87
2019-06-07T04:57:45.089Z,21.82
2019-06-07T05:00:46.865Z,21.80
2019-06-07T05:02:47.234Z,21.80
2019-06-07T05:05:16.619Z,21.88
2019-06-07T05:07:46.457Z,22.02
2019-06-07T05:10:15.975Z,22.20
2019-06-07T05:12:45.404Z,22.55
2019-06-07T05:15:14.691Z,22.68
2019-06-07T05:17:45.166Z,22.77
2019-06-07T05:20:16.130Z,22.80
2019-06-07T05:22:46.067Z,22.92
2019-06-07T05:25:16.279Z,22.97
2019-06-07T05:27:48.541Z,23.10
2019-06-07T05:31:01.993Z,23.26
2019-06-07T05:33:08.380Z,23.38
2019-06-07T05:35:41.797Z,23.35
2019-06-07T05:38:10.155Z,23.32
2019-06-07T05:40:48.779Z,23.27
2019-06-07T05:43:26.253Z,23.10
2019-06-07T05:45:55.704Z,23.24
2019-06-07T05:48:25.270Z,22.89
2019-06-07T05:50:57.306Z,23.27
2019-06-07T05:53:25.817Z,23.70
2019-06-07T05:55:55.214Z,23.93
2019-06-07T05:58:24.598Z,23.95
2019-06-07T06:00:53.895Z,23.92
2019-06-07T06:03:23.265Z,24.23
2019-06-07T06:05:55.370Z,24.29
2019-06-07T06:08:23.540Z,24.21
2019-06-07T06:10:52.866Z,24.18
2019-06-07T06:13:22.184Z,23.95
2019-06-07T06:16:01.395Z,24.14
2019-06-07T06:18:22.537Z,24.41
2019-06-07T06:21:15.148Z,24.55
2019-06-07T06:23:22.953Z,24.79
2019-06-07T06:25:57.100Z,25.14
2019-06-07T06:28:23.419Z,25.02
2019-06-07T06:30:52.791Z,25.30
2019-06-07T06:33:33.676Z,25.58
2019-06-07T06:35:53.258Z,25.75
2019-06-07T06:38:22.658Z,25.81
2019-06-07T06:41:05.243Z,25.69
2019-06-07T06:43:23.454Z,25.84
2019-06-07T06:45:52.850Z,25.95
2019-06-07T06:48:22.206Z,26.12
2019-06-07T06:50:52.844Z,26.13
2019-06-07T06:53:22.173Z,26.00
2019-06-07T06:55:51.871Z,26.08
2019-06-07T06:58:21.266Z,26.15
2019-06-07T07:01:05.406Z,26.04
2019-06-07T07:05:56.074Z,26.72
2019-06-07T07:08:25.725Z,26.94
2019-06-07T07:10:55.349Z,26.93
2019-06-07T07:13:25.297Z,26.56
2019-06-07T07:15:58.013Z,26.94
2019-06-07T07:18:26.036Z,27.27
2019-06-07T07:20:57.462Z,26.92
2019-06-07T07:23:26.610Z,27.01
2019-06-07T07:25:59.518Z,27.42
2019-06-07T07:28:27.092Z,27.60
2019-06-07T07:30:57.346Z,27.71
2019-06-07T07:34:20.291Z,27.91
2019-06-07T07:36:28.482Z,28.24
2019-06-07T07:38:29.200Z,28.30
2019-06-07T07:41:14.667Z,27.77
2019-06-07T07:43:29.575Z,27.79
2019-06-07T07:46:03.131Z,27.91
2019-06-07T07:48:30.674Z,28.21
2019-06-07T07:51:01.355Z,28.18
2019-06-07T07:53:47.896Z,28.04
2019-06-07T07:56:02.359Z,28.35
2019-06-07T07:58:31.949Z,28.51
2019-06-07T08:01:10.091Z,29.08
2019-06-07T08:03:32.420Z,29.34
2019-06-07T08:06:01.787Z,29.32
2019-06-07T08:08:31.255Z,29.46
2019-06-07T08:11:02.327Z,29.76
2019-06-07T08:13:32.033Z,30.36
2019-06-07T08:16:09.966Z,30.49
2019-06-07T08:18:32.456Z,30.47
2019-06-07T08:21:21.553Z,30.72
2019-06-07T08:23:33.554Z,30.78
2019-06-07T08:26:03.050Z,31.15
2019-06-07T08:28:32.657Z,31.37
2019-06-07T08:31:07.032Z,31.57
2019-06-07T08:33:32.977Z,31.41
2019-06-07T08:36:15.075Z,31.33
2019-06-07T08:38:47.354Z,30.94
2019-06-07T08:41:12.133Z,31.15
2019-06-07T08:43:41.155Z,31.24
2019-06-07T08:46:10.982Z,31.41
2019-06-07T08:48:40.932Z,31.49
2019-06-07T08:51:10.517Z,30.93
2019-06-07T08:53:40.534Z,30.00
2019-06-07T08:56:11.395Z,30.63
2019-06-07T08:58:41.197Z,31.20
2019-06-07T09:01:10.646Z,30.83
2019-06-07T09:03:40.026Z,31.05
2019-06-07T09:06:53.977Z,31.18
2019-06-07T09:08:42.459Z,31.66
2019-06-07T09:11:12.368Z,32.35
2019-06-07T09:13:41.750Z,32.31
2019-06-07T09:16:11.355Z,32.14
2019-06-07T09:18:44.392Z,32.73
2019-06-07T09:21:11.710Z,33.13
2019-06-07T09:23:41.100Z,33.34
2019-06-07T09:26:16.546Z,33.58
2019-06-07T09:28:42.126Z,34.25
2019-06-07T09:31:12.806Z,33.91
2019-06-07T09:33:42.389Z,33.51
2019-06-07T09:36:13.128Z,33.78
2019-06-07T09:38:44.521Z,33.64
2019-06-07T09:41:14.045Z,33.34
2019-06-07T09:44:01.977Z,33.63
2019-06-07T09:46:16.380Z,33.29
2019-06-07T09:49:14.184Z,33.46
2019-06-07T09:51:19.597Z,33.72
2019-06-07T09:53:48.285Z,33.68
2019-06-07T09:56:17.729Z,33.82
2019-06-07T09:58:52.121Z,33.93
2019-06-07T10:01:18.437Z,33.73
2019-06-07T10:03:47.836Z,33.94
2019-06-07T10:06:17.223Z,32.66
2019-06-07T10:10:04.793Z,32.76
2019-06-07T10:11:17.713Z,32.92
2019-06-07T10:13:47.101Z,32.89
2019-06-07T10:16:16.507Z,33.89
2019-06-07T10:18:45.800Z,34.17
2019-06-07T10:21:15.712Z,34.07
2019-06-07T10:23:45.323Z,34.67
2019-06-07T10:26:14.885Z,34.05
2019-06-07T10:28:44.261Z,33.61
2019-06-07T10:31:13.587Z,33.98
2019-06-07T10:33:43.253Z,33.96
2019-06-07T10:36:12.625Z,33.83
2019-06-07T10:38:42.006Z,34.39
2019-06-07T10:41:11.314Z,34.30
2019-06-07T10:43:40.729Z,34.64
2019-06-07T10:46:10.175Z,35.04
2019-06-07T10:48:40.268Z,35.43
2019-06-07T10:51:12.522Z,36.02
2019-06-07T10:53:40.800Z,36.53
2019-06-07T10:56:11.068Z,36.22
2019-06-07T10:58:40.756Z,35.75
2019-06-07T11:01:12.401Z,36.01
2019-06-07T11:03:41.188Z,36.47
2019-06-07T11:06:12.004Z,36.39
2019-06-07T11:08:41.840Z,36.72
2019-06-07T11:11:12.254Z,37.33
2019-06-07T11:13:41.667Z,37.10
2019-06-07T11:16:11.342Z,37.52
2019-06-07T11:18:40.654Z,37.88
2019-06-07T11:21:10.220Z,37.75
2019-06-07T11:23:39.754Z,37.87
2019-06-07T11:26:10.313Z,37.98
2019-06-07T11:28:39.694Z,37.58
2019-06-07T11:31:10.518Z,37.20
2019-06-07T11:33:40.333Z,36.26
2019-06-07T11:36:10.651Z,36.49
2019-06-07T11:38:40.297Z,36.21
2019-06-07T11:41:09.583Z,36.40
2019-06-07T11:43:38.879Z,36.81
2019-06-07T11:46:08.871Z,34.73
2019-06-07T11:48:38.342Z,34.48
2019-06-07T11:51:08.578Z,35.00
2019-06-07T11:53:38.134Z,34.43
2019-06-07T11:56:07.866Z,35.37
2019-06-07T11:58:39.900Z,34.87
2019-06-07T12:01:14.366Z,34.94
2019-06-07T12:03:43.627Z,35.18
2019-06-07T12:06:16.277Z,35.75
2019-06-07T12:08:45.978Z,36.73
2019-06-07T12:11:16.542Z,37.57
2019-06-07T12:13:46.194Z,37.60
2019-06-07T12:16:17.471Z,36.50
2019-06-07T12:18:47.072Z,36.34
2019-06-07T12:21:17.960Z,37.11
2019-06-07T12:23:47.537Z,37.05
2019-06-07T12:26:16.864Z,35.81
2019-06-07T12:28:46.232Z,35.65
2019-06-07T12:31:15.627Z,36.10
2019-06-07T12:33:45.017Z,35.66
2019-06-07T12:36:15.819Z,34.88
2019-06-07T12:38:45.353Z,35.41
2019-06-07T12:41:15.922Z,34.49
2019-06-07T12:43:48.627Z,34.86
2019-06-07T12:46:22.974Z,34.63
2019-06-07T12:48:49.912Z,35.89
2019-06-07T12:51:19.450Z,37.10
2019-06-07T12:53:48.831Z,36.94
2019-06-07T12:56:18.233Z,35.86
2019-06-07T12:58:47.694Z,36.01
2019-06-07T13:01:18.237Z,35.04
2019-06-07T13:03:47.839Z,34.65
2019-06-07T13:06:17.743Z,35.18
2019-06-07T13:08:47.155Z,35.19
2019-06-07T13:11:22.232Z,35.65
2019-06-07T13:13:47.628Z,36.37
2019-06-07T13:16:18.359Z,36.63
2019-06-07T13:18:47.787Z,37.71
2019-06-07T13:21:18.315Z,37.80
2019-06-07T13:23:47.920Z,38.23
2019-06-07T13:26:18.482Z,37.93
2019-06-07T13:28:48.211Z,36.89
2019-06-07T13:31:18.745Z,36.27
2019-06-07T13:33:48.350Z,35.58
2019-06-07T13:36:18.172Z,36.67
2019-06-07T13:38:47.640Z,37.68
2019-06-07T13:41:30.270Z,38.51
2019-06-07T13:43:51.453Z,37.45
2019-06-07T13:46:19.167Z,36.74
2019-06-07T13:48:48.530Z,35.73
2019-06-07T13:51:18.968Z,36.08
2019-06-07T13:53:52.085Z,36.80
2019-06-07T13:56:21.815Z,36.68
2019-06-07T13:58:51.144Z,36.18
2019-06-07T14:01:20.476Z,35.86
2019-06-07T14:03:49.700Z,35.41
2019-06-07T14:06:19.263Z,35.66
2019-06-07T14:08:48.519Z,36.52
2019-06-07T14:11:17.886Z,37.18
2019-06-07T14:13:47.112Z,36.19
2019-06-07T14:16:16.486Z,36.52
2019-06-07T14:18:45.797Z,36.57
2019-06-07T14:21:15.148Z,36.11
2019-06-07T14:23:49.176Z,36.22
2019-06-07T14:26:15.542Z,35.78
2019-06-07T14:28:44.906Z,36.32
2019-06-07T14:31:14.325Z,35.36
2019-06-07T14:33:44.275Z,35.35
2019-06-07T14:36:13.648Z,34.74
2019-06-07T14:38:43.057Z,34.29
2019-06-07T14:41:12.360Z,35.28
2019-06-07T14:43:42.078Z,36.04
2019-06-07T14:46:11.702Z,36.04
2019-06-07T14:48:41.036Z,35.54
2019-06-07T14:51:10.407Z,34.83
2019-06-07T14:53:39.730Z,34.69
2019-06-07T14:56:09.107Z,35.21
2019-06-07T14:58:43.270Z,35.46
2019-06-07T15:01:09.746Z,35.66
2019-06-07T15:03:39.315Z,35.62
2019-06-07T15:06:08.763Z,35.41
2019-06-07T15:08:39.180Z,35.18
2019-06-07T15:11:08.741Z,35.32
2019-06-07T15:13:39.754Z,35.70
2019-06-07T15:16:09.273Z,35.81
2019-06-07T15:18:38.619Z,36.22
2019-06-07T15:21:07.999Z,36.35
2019-06-07T15:23:37.536Z,35.50
2019-06-07T15:26:06.919Z,35.35
2019-06-07T15:28:38.026Z,35.94
2019-06-07T15:31:07.504Z,35.71
2019-06-07T15:33:38.240Z,35.24
2019-06-07T15:36:07.913Z,35.21
2019-06-07T15:38:37.361Z,35.47
2019-06-07T15:41:06.973Z,34.57
2019-06-07T15:43:37.459Z,34.76
2019-06-07T15:46:07.041Z,35.36
2019-06-07T15:48:36.319Z,35.46
2019-06-07T15:51:05.741Z,35.89
2019-06-07T15:53:39.788Z,35.44
2019-06-07T15:56:06.615Z,35.14
2019-06-07T15:58:37.195Z,35.44
2019-06-07T16:01:06.919Z,35.94
2019-06-07T16:03:37.803Z,36.23
2019-06-07T16:06:07.293Z,36.52
2019-06-07T16:08:36.609Z,36.66
2019-06-07T16:11:06.071Z,36.79
2019-06-07T16:13:36.595Z,36.90
2019-06-07T16:16:06.241Z,37.04
2019-06-07T16:18:37.530Z,36.87
2019-06-07T16:21:06.929Z,36.64
2019-06-07T16:23:37.780Z,36.55
2019-06-07T16:26:07.408Z,36.36
2019-06-07T16:28:36.756Z,36.62
2019-06-07T16:31:06.198Z,36.79
2019-06-07T16:33:36.686Z,36.75
2019-06-07T16:36:06.228Z,36.61
2019-06-07T16:38:36.277Z,36.50
2019-06-07T16:41:06.546Z,36.51
2019-06-07T16:43:36.558Z,36.19
2019-06-07T16:46:06.299Z,36.23
2019-06-07T16:48:36.790Z,36.26
2019-06-07T16:51:06.342Z,36.30
2019-06-07T16:53:36.156Z,36.31
2019-06-07T16:56:06.474Z,36.16
2019-06-07T16:58:35.804Z,36.05
2019-06-07T17:01:05.254Z,35.80
2019-06-07T17:03:34.662Z,35.58
2019-06-07T17:06:04.241Z,35.32
2019-06-07T17:08:33.650Z,35.09
2019-06-07T17:11:03.144Z,34.84
2019-06-07T17:13:34.007Z,34.65
2019-06-07T17:16:03.745Z,34.44
2019-06-07T17:18:36.800Z,34.14
2019-06-07T17:21:04.309Z,33.81
2019-06-07T17:23:33.683Z,33.48
2019-06-07T17:26:03.060Z,33.10
2019-06-07T17:28:33.244Z,32.83
2019-06-07T17:31:02.822Z,32.58
2019-06-07T17:33:32.256Z,32.33
2019-06-07T17:36:01.729Z,32.11
2019-06-07T17:38:37.030Z,31.96
2019-06-07T17:41:06.519Z,31.84
2019-06-07T17:43:48.405Z,31.67
2019-06-07T17:46:07.110Z,31.57
2019-06-07T17:48:36.467Z,31.45
2019-06-07T17:51:05.843Z,31.35
2019-06-07T17:53:35.252Z,31.22
2019-06-07T17:56:04.624Z,31.04
2019-06-07T17:58:34.002Z,30.94
2019-06-07T18:01:03.460Z,30.83
2019-06-07T18:03:32.850Z,30.74
2019-06-07T18:06:03.639Z,30.64
2019-06-07T18:08:33.156Z,30.50
2019-06-07T18:11:02.595Z,30.37
2019-06-07T18:13:32.085Z,30.30
2019-06-07T18:16:01.579Z,30.20
2019-06-07T18:18:30.958Z,30.06
2019-06-07T18:21:00.407Z,29.96
2019-06-07T18:23:29.895Z,29.86
2019-06-07T18:25:59.360Z,29.72
2019-06-07T18:28:28.783Z,29.63
2019-06-07T18:30:58.964Z,29.49
2019-06-07T18:33:28.462Z,29.42
2019-06-07T18:35:59.494Z,29.27
2019-06-07T18:38:28.943Z,29.19
2019-06-07T18:40:59.603Z,29.12
2019-06-07T18:43:29.164Z,29.11
2019-06-07T18:45:58.583Z,29.04
2019-06-07T18:48:27.922Z,28.89
2019-06-07T18:50:59.053Z,28.77
2019-06-07T18:53:28.728Z,28.68
2019-06-07T18:55:58.197Z,28.59
2019-06-07T18:58:27.534Z,28.54
2019-06-07T19:00:57.599Z,28.54
2019-06-07T19:03:27.230Z,28.52
2019-06-07T19:05:56.702Z,28.43
2019-06-07T19:08:26.348Z,28.32
2019-06-07T19:10:56.868Z,28.25
2019-06-07T19:13:26.527Z,28.17
2019-06-07T19:15:57.621Z,28.07
2019-06-07T19:18:27.134Z,28.02
2019-06-07T19:20:56.568Z,27.92
2019-06-07T19:23:26.304Z,27.82
2019-06-07T19:25:56.371Z,27.71
2019-06-07T19:28:39.505Z,27.61
2019-06-07T19:31:09.298Z,27.60
2019-06-07T19:33:48.661Z,27.53
2019-06-07T19:36:09.910Z,27.34
2019-06-07T19:38:39.373Z,27.30
2019-06-07T19:41:19.361Z,27.25
2019-06-07T19:43:40.107Z,27.14
2019-06-07T19:46:09.482Z,27.10
2019-06-07T19:48:38.871Z,27.02
2019-06-07T19:51:10.727Z,26.98
2019-06-07T19:53:40.122Z,26.94
2019-06-07T19:56:09.681Z,26.88
2019-06-07T19:58:39.022Z,26.86
2019-06-07T20:01:10.579Z,26.80
2019-06-07T20:03:39.977Z,26.74
2019-06-07T20:06:09.424Z,26.68
2019-06-07T20:08:38.878Z,26.62
2019-06-07T20:11:09.003Z,26.58
2019-06-07T20:13:38.959Z,26.56
2019-06-07T20:16:08.332Z,26.62
2019-06-07T20:18:37.784Z,26.59
2019-06-07T20:21:09.097Z,26.54
2019-06-07T20:23:38.711Z,26.55
2019-06-07T20:26:08.847Z,26.51
2019-06-07T20:28:38.503Z,26.37
2019-06-07T20:31:08.299Z,26.17
2019-06-07T20:33:37.950Z,26.13
2019-06-07T20:36:07.347Z,26.07
2019-06-07T20:38:37.436Z,26.02
2019-06-07T20:41:07.452Z,25.99
2019-06-07T20:43:36.996Z,25.95
2019-06-07T20:46:06.992Z,25.96
2019-06-07T20:48:37.548Z,25.99
2019-06-07T20:51:08.559Z,25.96
2019-06-07T20:53:38.233Z,25.94
2019-06-07T20:56:09.024Z,25.91
2019-06-07T20:58:38.885Z,25.87
2019-06-07T21:01:09.333Z,25.82
2019-06-07T21:03:38.853Z,25.80
2019-06-07T21:06:11.011Z,25.75
2019-06-07T21:08:40.387Z,25.72
2019-06-07T21:11:09.929Z,25.69
2019-06-07T21:13:42.145Z,25.66
2019-06-07T21:16:10.581Z,25.62
2019-06-07T21:18:40.308Z,25.59
2019-06-07T21:21:10.651Z,25.53
2019-06-07T21:23:40.263Z,25.46
2019-06-07T21:26:10.980Z,25.41
2019-06-07T21:28:50.008Z,25.43
2019-06-07T21:31:19.523Z,25.46
2019-06-07T21:33:49.168Z,25.47
2019-06-07T21:36:18.709Z,25.43
2019-06-07T21:38:48.086Z,25.37
2019-06-07T21:41:17.563Z,25.33
2019-06-07T21:43:47.496Z,25.30
2019-06-07T21:46:20.541Z,25.29
2019-06-07T21:48:47.944Z,25.27
2019-06-07T21:51:17.408Z,25.24
2019-06-07T21:53:46.778Z,25.26
2019-06-07T21:56:16.267Z,25.27
2019-06-07T21:58:51.625Z,25.24
2019-06-07T22:01:22.222Z,25.25
2019-06-07T22:03:51.632Z,25.26
2019-06-07T22:06:21.039Z,25.27
2019-06-07T22:08:50.541Z,25.25
2019-06-07T22:11:20.117Z,25.23
2019-06-07T22:13:49.524Z,25.22
2019-06-07T22:16:28.469Z,25.21
2019-06-07T22:18:50.312Z,25.14
2019-06-07T22:21:19.787Z,25.10
2019-06-07T22:23:52.610Z,25.10
2019-06-07T22:26:22.419Z,25.08
2019-06-07T22:28:57.377Z,25.06
2019-06-07T22:31:31.017Z,25.01
2019-06-07T22:33:59.214Z,24.95
2019-06-07T22:36:30.128Z,24.91
2019-06-07T22:38:59.527Z,24.91
2019-06-07T22:41:28.982Z,24.88
2019-06-07T22:43:58.538Z,24.83
2019-06-07T22:46:37.515Z,24.78
2019-06-07T22:48:59.104Z,24.75
2019-06-07T22:51:28.574Z,24.72
2019-06-07T22:54:03.158Z,24.68
2019-06-07T22:56:43.389Z,24.66
2019-06-07T22:59:15.863Z,24.62
2019-06-07T23:01:43.880Z,24.61
2019-06-07T23:04:14.542Z,24.60
2019-06-07T23:06:44.016Z,24.57
2019-06-07T23:09:13.473Z,24.55
2019-06-07T23:11:42.947Z,24.57
2019-06-07T23:14:13.445Z,24.46
2019-06-07T23:16:54.743Z,24.32
2019-06-07T23:19:14.113Z,24.20
2019-06-07T23:21:43.355Z,24.11
2019-06-07T23:24:14.050Z,24.03
2019-06-07T23:26:43.866Z,24.02
2019-06-07T23:29:14.497Z,23.99
2019-06-07T23:31:44.224Z,23.96
2019-06-07T23:34:14.718Z,23.95
2019-06-07T23:36:44.269Z,23.94
2019-06-07T23:39:15.298Z,23.87
2019-06-07T23:41:44.910Z,23.75
2019-06-07T23:44:15.323Z,23.71
2019-06-07T23:46:44.676Z,23.66
2019-06-07T23:49:15.245Z,23.64
2019-06-07T23:51:44.956Z,23.67
2019-06-07T23:54:15.676Z,23.71
2019-06-07T23:56:45.087Z,23.68
2019-06-07T23:59:14.472Z,23.68
